Time;durP1;ratioP1;P1;durP2;ratioP2;P2;SDS_P1;SDS_P2;PMS_P1;PMS_P2;Temp;Humidity;BMP_temperature;BMP_pressure;BME280_temperature;BME280_humidity;BME280_pressure;Samples;Min_cycle;Max_cycle;Signal;HPM_P1;HPM_P2
2024/01/26 00:01:08;0.00;0.00;0.62;0.00;0.00;0.62;3.93;2.10;;;21.30;24.30;;;;;;2229155;62;20436;-66
2024/01/26 00:03:52;0.00;0.00;0.62;0.00;0.00;0.62;5.63;2.40;;;21.30;24.30;;;;;;2228991;62;20392;-67
2024/01/26 00:06:37;0.00;0.00;0.62;0.00;0.00;0.62;2.50;1.90;;;21.30;24.30;;;;;;2229588;62;20396;-67
2024/01/26 00:09:23;0.00;0.00;0.62;0.00;0.00;0.62;4.20;2.20;;;21.30;24.30;;;;;;2229399;62;20449;-66
2024/01/26 00:12:07;0.00;0.00;0.62;0.00;0.00;0.62;4.13;2.43;;;21.30;24.30;;;;;;2229360;62;20431;-69
2024/01/26 00:14:52;0.00;0.00;0.62;0.00;0.00;0.62;3.43;2.00;;;21.30;24.40;;;;;;2229298;62;20415;-67
2024/01/26 00:17:36;0.00;0.00;0.62;0.00;0.00;0.62;3.97;2.20;;;21.30;24.40;;;;;;2228969;62;20436;-66
2024/01/26 00:20:21;0.00;0.00;0.62;0.00;0.00;0.62;3.20;2.30;;;21.30;24.30;;;;;;2228674;62;20910;-71
2024/01/26 00:23:06;0.00;0.00;0.62;0.00;0.00;0.62;3.13;2.00;;;21.30;24.30;;;;;;2229019;62;20443;-66
2024/01/26 00:25:52;0.00;0.00;0.62;0.00;0.00;0.62;4.30;2.47;;;21.30;24.40;;;;;;2228547;62;20494;-66
2024/01/26 00:28:36;0.00;0.00;0.62;0.00;0.00;0.62;3.10;2.17;;;21.30;24.30;;;;;;2229152;62;20376;-66
2024/01/26 00:31:21;0.00;0.00;0.62;0.00;0.00;0.62;3.10;1.97;;;21.30;24.30;;;;;;2228913;62;20452;-68
2024/01/26 00:34:05;0.00;0.00;0.62;0.00;0.00;0.62;3.97;2.10;;;21.30;24.40;;;;;;2228984;62;20364;-69
2024/01/26 00:36:50;0.00;0.00;0.62;0.00;0.00;0.62;3.40;2.43;;;21.30;24.30;;;;;;2229016;62;20677;-66
2024/01/26 00:39:34;0.00;0.00;0.62;0.00;0.00;0.62;3.40;2.20;;;21.30;24.90;;;;;;2228769;62;20368;-66
2024/01/26 00:42:20;0.00;0.00;0.62;0.00;0.00;0.62;2.50;2.00;;;21.30;24.30;;;;;;2228735;62;20396;-66
2024/01/26 00:45:06;0.00;0.00;0.62;0.00;0.00;0.62;3.47;2.50;;;21.30;24.30;;;;;;2229003;62;20419;-67
2024/01/26 00:47:50;0.00;0.00;0.62;0.00;0.00;0.62;2.50;2.00;;;21.30;24.30;;;;;;2228899;62;20440;-68
2024/01/26 00:50:35;0.00;0.00;0.62;0.00;0.00;0.62;3.83;2.23;;;21.30;24.30;;;;;;2228278;62;20376;-67
2024/01/26 00:53:22;0.00;0.00;0.62;0.00;0.00;0.62;3.43;2.27;;;21.30;24.30;;;;;;2228949;62;20401;-66
2024/01/26 00:56:06;0.00;0.00;0.62;0.00;0.00;0.62;3.17;2.07;;;21.30;24.30;;;;;;2228638;62;20375;-66
2024/01/26 00:58:52;0.00;0.00;0.62;0.00;0.00;0.62;2.67;2.07;;;21.30;24.30;;;;;;2228993;62;20376;-67
2024/01/26 01:01:37;0.00;0.00;0.62;0.00;0.00;0.62;3.57;2.23;;;21.30;24.30;;;;;;2228775;62;20600;-67
2024/01/26 01:04:22;0.00;0.00;0.62;0.00;0.00;0.62;2.80;2.00;;;21.30;24.30;;;;;;2228434;62;20364;-67
2024/01/26 01:07:07;0.00;0.00;0.62;0.00;0.00;0.62;3.83;2.33;;;21.30;24.30;;;;;;2228618;62;20448;-67
2024/01/26 01:09:51;0.00;0.00;0.62;0.00;0.00;0.62;4.27;2.00;;;21.30;24.40;;;;;;2228695;62;20372;-67
2024/01/26 01:12:39;0.00;0.00;0.62;0.00;0.00;0.62;2.93;1.60;;;21.30;24.30;;;;;;2228692;62;20392;-67
2024/01/26 01:15:24;0.00;0.00;0.62;0.00;0.00;0.62;3.57;2.03;;;21.30;24.30;;;;;;2228728;62;20878;-67
2024/01/26 01:18:09;0.00;0.00;0.62;0.00;0.00;0.62;3.63;2.27;;;21.30;24.40;;;;;;2228782;62;20421;-70
2024/01/26 01:20:54;0.00;0.00;0.62;0.00;0.00;0.62;3.73;2.33;;;21.30;24.40;;;;;;2228843;62;20688;-66
2024/01/26 01:23:39;0.00;0.00;0.62;0.00;0.00;0.62;3.27;2.17;;;21.30;24.30;;;;;;2228692;62;20418;-67
2024/01/26 01:26:24;0.00;0.00;0.62;0.00;0.00;0.62;4.10;2.23;;;21.30;24.30;;;;;;2228935;62;20397;-67
2024/01/26 01:29:08;0.00;0.00;0.62;0.00;0.00;0.62;2.93;1.87;;;21.30;24.30;;;;;;2229029;62;20505;-66
2024/01/26 01:31:54;0.00;0.00;0.62;0.00;0.00;0.62;3.80;2.03;;;21.30;24.30;;;;;;2228662;62;20815;-66
2024/01/26 01:34:40;0.00;0.00;0.62;0.00;0.00;0.62;3.63;1.93;;;21.30;24.30;;;;;;2228466;62;20384;-66
2024/01/26 01:37:25;0.00;0.00;0.62;0.00;0.00;0.62;4.53;2.00;;;21.30;24.30;;;;;;2228718;62;20459;-68
2024/01/26 01:40:11;0.00;0.00;0.62;0.00;0.00;0.62;2.87;2.00;;;21.30;24.30;;;;;;2228339;62;20405;-66
2024/01/26 01:42:55;0.00;0.00;0.62;0.00;0.00;0.62;2.60;1.60;;;21.30;24.30;;;;;;2228993;62;20408;-66
2024/01/26 01:45:40;0.00;0.00;0.62;0.00;0.00;0.62;4.10;2.00;;;21.30;24.30;;;;;;2228846;62;20368;-66
2024/01/26 01:48:27;0.00;0.00;0.62;0.00;0.00;0.62;3.37;1.93;;;21.30;24.30;;;;;;2228680;62;20361;-66
2024/01/26 01:51:14;0.00;0.00;0.62;0.00;0.00;0.62;4.03;2.30;;;21.30;24.40;;;;;;2228360;62;20388;-66
2024/01/26 01:53:59;0.00;0.00;0.62;0.00;0.00;0.62;5.53;1.80;;;21.30;24.40;;;;;;2228725;62;20791;-65
2024/01/26 01:56:44;0.00;0.00;0.62;0.00;0.00;0.62;2.90;1.90;;;21.30;24.40;;;;;;2228642;62;20384;-66
2024/01/26 01:59:29;0.00;0.00;0.62;0.00;0.00;0.62;3.27;2.23;;;21.30;24.40;;;;;;2228555;62;20910;-66
2024/01/26 02:02:14;0.00;0.00;0.62;0.00;0.00;0.62;2.50;1.60;;;21.30;24.40;;;;;;2227824;62;20958;-67
2024/01/26 02:05:00;0.00;0.00;0.62;0.00;0.00;0.62;2.77;1.90;;;21.30;24.40;;;;;;2228669;62;20366;-67
2024/01/26 02:07:48;0.00;0.00;0.62;0.00;0.00;0.62;3.20;2.10;;;21.30;24.40;;;;;;2228503;62;20380;-67
2024/01/26 02:10:33;0.00;0.00;0.62;0.00;0.00;0.62;3.13;1.90;;;21.30;24.40;;;;;;2228535;62;20388;-67
2024/01/26 02:13:17;0.00;0.00;0.62;0.00;0.00;0.62;3.80;2.17;;;21.30;24.40;;;;;;2228743;62;20384;-71
2024/01/26 02:16:02;0.00;0.00;0.62;0.00;0.00;0.62;2.37;1.70;;;21.30;24.40;;;;;;2228385;62;20425;-67
2024/01/26 02:18:47;0.00;0.00;0.62;0.00;0.00;0.62;4.30;2.17;;;21.30;24.40;;;;;;2228612;62;20924;-67
2024/01/26 02:21:33;0.00;0.00;0.62;0.00;0.00;0.62;3.03;2.10;;;21.30;24.40;;;;;;2228368;62;20392;-66
2024/01/26 02:24:19;0.00;0.00;0.62;0.00;0.00;0.62;3.83;2.23;;;21.30;24.40;;;;;;2227983;62;20391;-66
2024/01/26 02:27:04;0.00;0.00;0.62;0.00;0.00;0.62;2.53;1.50;;;21.30;24.40;;;;;;2228680;62;20558;-66
2024/01/26 02:29:49;0.00;0.00;0.62;0.00;0.00;0.62;2.03;1.60;;;21.30;24.40;;;;;;2228584;62;20428;-67
2024/01/26 02:32:33;0.00;0.00;0.62;0.00;0.00;0.62;3.87;1.80;;;21.30;24.40;;;;;;2228683;62;20395;-69
2024/01/26 02:35:18;0.00;0.00;0.62;0.00;0.00;0.62;3.07;2.30;;;21.30;24.40;;;;;;2232569;62;20371;-66
2024/01/26 02:38:02;0.00;0.00;0.62;0.00;0.00;0.62;5.20;2.13;;;21.30;24.40;;;;;;2232678;62;20363;-66
2024/01/26 02:40:49;0.00;0.00;0.62;0.00;0.00;0.62;5.03;2.03;;;21.30;24.40;;;;;;2229073;62;20407;-69
2024/01/26 02:43:33;0.00;0.00;0.62;0.00;0.00;0.62;3.00;1.60;;;21.30;24.40;;;;;;2229372;62;20395;-66
2024/01/26 02:46:18;0.00;0.00;0.62;0.00;0.00;0.62;4.30;1.83;;;21.30;24.40;;;;;;2232275;62;20402;-70
2024/01/26 02:49:04;0.00;0.00;0.62;0.00;0.00;0.62;2.33;1.37;;;21.30;24.40;;;;;;2232589;62;20508;-67
2024/01/26 02:51:48;0.00;0.00;0.62;0.00;0.00;0.62;2.50;1.50;;;21.30;24.40;;;;;;2229791;62;20444;-67
2024/01/26 02:54:33;0.00;0.00;0.62;0.00;0.00;0.62;3.67;1.90;;;21.30;24.40;;;;;;2232929;62;20418;-67
2024/01/26 02:57:19;0.00;0.00;0.62;0.00;0.00;0.62;2.80;1.80;;;21.30;24.40;;;;;;2233027;62;20379;-67
2024/01/26 03:00:07;0.00;0.00;0.62;0.00;0.00;0.62;3.00;1.70;;;21.30;24.40;;;;;;2233172;62;20375;-67
2024/01/26 03:02:52;0.00;0.00;0.62;0.00;0.00;0.62;3.80;1.70;;;21.30;24.40;;;;;;2233032;62;20440;-67
2024/01/26 03:05:36;0.00;0.00;0.62;0.00;0.00;0.62;2.20;1.50;;;21.30;24.40;;;;;;2233290;62;20363;-72
2024/01/26 03:08:21;0.00;0.00;0.62;0.00;0.00;0.62;2.93;1.40;;;21.30;24.40;;;;;;2233097;62;20359;-67
2024/01/26 03:11:06;0.00;0.00;0.62;0.00;0.00;0.62;2.93;1.67;;;21.30;24.40;;;;;;2233209;62;20418;-68
2024/01/26 03:13:52;0.00;0.00;0.62;0.00;0.00;0.62;2.70;1.63;;;21.30;24.40;;;;;;2233038;62;20367;-67
2024/01/26 03:16:40;0.00;0.00;0.62;0.00;0.00;0.62;3.33;1.60;;;21.30;24.40;;;;;;2232918;62;20511;-72
2024/01/26 03:19:25;0.00;0.00;0.62;0.00;0.00;0.62;2.17;1.47;;;21.30;24.40;;;;;;2233300;62;20379;-68
2024/01/26 03:22:10;0.00;0.00;0.62;0.00;0.00;0.62;4.10;1.70;;;21.30;24.40;;;;;;2232990;62;20798;-67
2024/01/26 03:24:54;0.00;0.00;0.62;0.00;0.00;0.62;2.60;1.63;;;21.30;24.40;;;;;;2232917;62;20383;-67
2024/01/26 03:27:39;0.00;0.00;0.62;0.00;0.00;0.62;2.03;1.43;;;21.30;24.40;;;;;;2232795;62;20859;-67
2024/01/26 03:30:25;0.00;0.00;0.62;0.00;0.00;0.62;2.70;1.77;;;21.30;24.40;;;;;;2232903;62;20766;-67
2024/01/26 03:33:10;0.00;0.00;0.62;0.00;0.00;0.62;2.30;1.20;;;21.30;24.40;;;;;;2233023;62;20446;-67
2024/01/26 03:35:54;0.00;0.00;0.62;0.00;0.00;0.62;2.70;1.60;;;21.30;24.40;;;;;;2233064;62;20390;-67
2024/01/26 03:38:39;0.00;0.00;0.62;0.00;0.00;0.62;2.53;1.57;;;21.30;24.40;;;;;;2232994;62;20378;-67
2024/01/26 03:41:24;0.00;0.00;0.62;0.00;0.00;0.62;2.70;1.60;;;21.20;24.30;;;;;;2229668;62;20472;-67
2024/01/26 03:44:11;0.00;0.00;0.62;0.00;0.00;0.62;2.30;1.63;;;21.30;24.40;;;;;;2233004;62;20447;-66
2024/01/26 03:46:57;0.00;0.00;0.62;0.00;0.00;0.62;2.83;1.60;;;21.30;24.40;;;;;;2233131;62;20857;-67
2024/01/26 03:49:44;0.00;0.00;0.62;0.00;0.00;0.62;2.23;1.60;;;21.30;24.40;;;;;;2232668;62;20508;-68
2024/01/26 03:52:29;0.00;0.00;0.62;0.00;0.00;0.62;4.30;1.80;;;21.30;24.40;;;;;;2232808;62;20472;-68
2024/01/26 03:55:13;0.00;0.00;0.62;0.00;0.00;0.62;3.17;1.30;;;21.30;24.40;;;;;;2232899;61;20368;-69
2024/01/26 03:57:58;0.00;0.00;0.62;0.00;0.00;0.62;4.30;1.97;;;21.30;24.40;;;;;;2233171;62;20830;-70
2024/01/26 04:00:43;0.00;0.00;0.62;0.00;0.00;0.62;2.57;1.47;;;21.30;24.40;;;;;;2232855;62;20862;-68
2024/01/26 04:03:29;0.00;0.00;0.62;0.00;0.00;0.62;5.00;1.87;;;21.20;24.30;;;;;;2232878;62;20399;-67
2024/01/26 04:06:14;0.00;0.00;0.62;0.00;0.00;0.62;2.47;1.40;;;21.20;24.40;;;;;;2232936;62;20383;-66
2024/01/26 04:08:59;0.00;0.00;0.62;0.00;0.00;0.62;3.47;1.90;;;21.30;24.40;;;;;;2232813;62;20403;-67
2024/01/26 04:11:43;0.00;0.00;0.62;0.00;0.00;0.62;2.00;1.33;;;21.30;24.40;;;;;;2233285;62;20382;-66
2024/01/26 04:14:28;0.00;0.00;0.62;0.00;0.00;0.62;2.20;1.30;;;21.30;24.50;;;;;;2232754;62;20387;-67
2024/01/26 04:17:12;0.00;0.00;0.62;0.00;0.00;0.62;2.60;1.53;;;21.30;25.00;;;;;;2232937;62;20398;-67
2024/01/26 04:19:58;0.00;0.00;0.62;0.00;0.00;0.62;1.90;1.10;;;21.20;24.90;;;;;;2232524;62;20845;-67
2024/01/26 04:22:42;0.00;0.00;0.62;0.00;0.00;0.62;3.53;1.57;;;21.30;24.50;;;;;;2232697;62;20391;-67
2024/01/26 04:25:27;0.00;0.00;0.62;0.00;0.00;0.62;1.77;1.20;;;21.30;24.40;;;;;;2233154;62;20363;-66
2024/01/26 04:28:12;0.00;0.00;0.62;0.00;0.00;0.62;2.40;1.30;;;21.30;24.40;;;;;;2233014;62;20892;-67
2024/01/26 04:30:56;0.00;0.00;0.62;0.00;0.00;0.62;2.40;1.20;;;21.30;24.50;;;;;;2232582;62;20395;-70
2024/01/26 04:33:41;0.00;0.00;0.62;0.00;0.00;0.62;2.33;1.50;;;21.30;24.40;;;;;;2232792;62;20375;-67
2024/01/26 04:36:27;0.00;0.00;0.62;0.00;0.00;0.62;2.23;1.63;;;21.30;24.50;;;;;;2232519;62;20789;-70
2024/01/26 04:39:12;0.00;0.00;0.62;0.00;0.00;0.62;1.93;1.27;;;21.20;24.40;;;;;;2232891;62;20912;-68
2024/01/26 04:41:56;0.00;0.00;0.62;0.00;0.00;0.62;2.53;1.30;;;21.20;24.40;;;;;;2232558;62;20435;-68
2024/01/26 04:44:41;0.00;0.00;0.62;0.00;0.00;0.62;1.83;1.20;;;21.30;24.40;;;;;;2233128;62;20415;-68
2024/01/26 04:47:25;0.00;0.00;0.62;0.00;0.00;0.62;2.63;1.23;;;21.20;24.40;;;;;;2232826;62;20953;-66
2024/01/26 04:50:10;0.00;0.00;0.62;0.00;0.00;0.62;1.90;1.13;;;21.20;24.40;;;;;;2232860;62;20443;-65
2024/01/26 04:52:57;0.00;0.00;0.62;0.00;0.00;0.62;2.03;1.20;;;21.20;24.40;;;;;;2232767;62;20419;-66
2024/01/26 04:55:41;0.00;0.00;0.62;0.00;0.00;0.62;2.43;1.33;;;21.20;24.40;;;;;;2230081;61;20375;-68
2024/01/26 04:58:26;0.00;0.00;0.62;0.00;0.00;0.62;1.70;1.00;;;21.20;24.40;;;;;;2234114;62;20363;-66
2024/01/26 05:01:11;0.00;0.00;0.62;0.00;0.00;0.62;1.90;1.10;;;21.20;24.40;;;;;;2234113;62;20391;-67
2024/01/26 05:03:55;0.00;0.00;0.62;0.00;0.00;0.62;2.10;1.40;;;21.20;24.40;;;;;;2233740;62;20408;-67
2024/01/26 05:06:42;0.00;0.00;0.62;0.00;0.00;0.62;2.40;1.07;;;21.20;24.40;;;;;;2233975;62;20387;-67
2024/01/26 05:09:28;0.00;0.00;0.62;0.00;0.00;0.62;3.63;1.40;;;21.20;24.40;;;;;;2234422;62;20886;-67
2024/01/26 05:12:12;0.00;0.00;0.62;0.00;0.00;0.62;2.00;1.23;;;21.20;24.40;;;;;;2233508;62;20391;-67
2024/01/26 05:14:57;0.00;0.00;0.62;0.00;0.00;0.62;2.30;1.10;;;21.20;24.40;;;;;;2233622;62;20359;-66
2024/01/26 05:17:42;0.00;0.00;0.62;0.00;0.00;0.62;1.70;1.03;;;21.20;24.40;;;;;;2231166;62;20508;-67
2024/01/26 05:20:26;0.00;0.00;0.62;0.00;0.00;0.62;2.20;1.10;;;21.20;24.40;;;;;;2233354;62;20419;-67
2024/01/26 05:23:11;0.00;0.00;0.62;0.00;0.00;0.62;2.10;1.07;;;21.20;24.40;;;;;;2232830;62;20395;-70
2024/01/26 05:25:57;0.00;0.00;0.62;0.00;0.00;0.62;1.70;0.90;;;21.20;24.40;;;;;;2232943;62;20411;-66
2024/01/26 05:28:42;0.00;0.00;0.62;0.00;0.00;0.62;1.63;1.13;;;21.20;24.50;;;;;;2232578;62;20434;-67
2024/01/26 05:31:26;0.00;0.00;0.62;0.00;0.00;0.62;1.83;1.13;;;21.20;24.40;;;;;;2232548;62;20435;-66
2024/01/26 05:34:11;0.00;0.00;0.62;0.00;0.00;0.62;1.80;1.10;;;21.20;24.40;;;;;;2232846;62;20463;-67
2024/01/26 05:36:55;0.00;0.00;0.62;0.00;0.00;0.62;1.90;1.17;;;21.30;24.50;;;;;;2232854;62;20423;-67
2024/01/26 05:39:41;0.00;0.00;0.62;0.00;0.00;0.62;2.67;1.20;;;21.20;24.40;;;;;;2232832;62;20754;-69
2024/01/26 05:42:27;0.00;0.00;0.62;0.00;0.00;0.62;1.80;0.93;;;21.20;24.50;;;;;;2232334;62;20435;-67
2024/01/26 05:45:11;0.00;0.00;0.62;0.00;0.00;0.62;2.03;1.27;;;21.20;24.50;;;;;;2232559;62;20371;-67
2024/01/26 05:47:56;0.00;0.00;0.62;0.00;0.00;0.62;1.60;0.83;;;21.20;24.40;;;;;;2232543;62;20366;-67
2024/01/26 05:50:41;0.00;0.00;0.62;0.00;0.00;0.62;1.80;1.13;;;21.20;24.50;;;;;;2232319;62;20375;-67
2024/01/26 05:53:25;0.00;0.00;0.62;0.00;0.00;0.62;1.70;1.00;;;21.20;24.50;;;;;;2232402;62;20415;-66
2024/01/26 05:56:10;0.00;0.00;0.62;0.00;0.00;0.62;1.77;1.10;;;21.20;24.50;;;;;;2232582;62;20460;-69
2024/01/26 05:58:56;0.00;0.00;0.62;0.00;0.00;0.62;1.93;1.00;;;21.20;24.50;;;;;;2232430;62;20511;-67
2024/01/26 06:01:40;0.00;0.00;0.62;0.00;0.00;0.62;2.50;1.20;;;21.20;24.50;;;;;;2232361;62;20410;-67
2024/01/26 06:04:25;0.00;0.00;0.62;0.00;0.00;0.62;1.50;0.90;;;21.20;24.50;;;;;;2232411;62;20956;-67
2024/01/26 06:07:09;0.00;0.00;0.62;0.00;0.00;0.62;1.90;0.93;;;21.20;24.50;;;;;;2229519;62;20351;-66
2024/01/26 06:09:54;0.00;0.00;0.62;0.00;0.00;0.62;1.87;1.20;;;21.20;24.50;;;;;;2232542;62;20374;-67
2024/01/26 06:12:40;0.00;0.00;0.62;0.00;0.00;0.62;1.93;1.00;;;21.20;24.50;;;;;;2232462;62;20391;-67
2024/01/26 06:15:26;0.00;0.00;0.62;0.00;0.00;0.62;1.80;1.30;;;21.20;24.50;;;;;;2232638;62;20355;-67
2024/01/26 06:18:10;0.00;0.00;0.62;0.00;0.00;0.62;2.00;1.00;;;21.20;24.50;;;;;;2232566;62;20371;-67
2024/01/26 06:20:55;0.00;0.00;0.62;0.00;0.00;0.62;2.47;1.50;;;21.20;24.50;;;;;;2232238;62;21013;-67
2024/01/26 06:23:39;0.00;0.00;0.62;0.00;0.00;0.62;1.90;1.20;;;21.20;24.50;;;;;;2232474;62;20387;-67
2024/01/26 06:26:25;0.00;0.00;0.62;0.00;0.00;0.62;2.07;1.20;;;21.20;24.50;;;;;;2232481;62;20424;-67
2024/01/26 06:29:09;0.00;0.00;0.62;0.00;0.00;0.62;1.87;1.13;;;21.20;24.50;;;;;;2229156;62;20364;-66
2024/01/26 06:31:58;0.00;0.00;0.62;0.00;0.00;0.62;2.37;1.57;;;21.20;24.50;;;;;;2232331;62;20440;-67
2024/01/26 06:34:42;0.00;0.00;0.62;0.00;0.00;0.62;2.23;1.50;;;21.20;24.50;;;;;;2232325;62;20787;-67
2024/01/26 06:37:27;0.00;0.00;0.62;0.00;0.00;0.62;2.77;1.70;;;21.20;24.50;;;;;;2232483;62;20371;-69
2024/01/26 06:40:12;0.00;0.00;0.62;0.00;0.00;0.62;2.30;1.50;;;21.20;24.50;;;;;;2232486;62;20419;-68
2024/01/26 06:42:57;0.00;0.00;0.62;0.00;0.00;0.62;2.50;1.80;;;21.20;24.50;;;;;;2232239;62;20415;-67
2024/01/26 06:45:42;0.00;0.00;0.62;0.00;0.00;0.62;2.73;2.20;;;21.20;24.50;;;;;;2232472;62;20395;-66
2024/01/26 06:48:28;0.00;0.00;0.62;0.00;0.00;0.62;2.53;1.80;;;21.20;24.50;;;;;;2232260;62;20363;-67
2024/01/26 06:51:12;0.00;0.00;0.62;0.00;0.00;0.62;2.10;1.30;;;21.20;24.60;;;;;;2232321;62;20399;-67
2024/01/26 06:54:00;0.00;0.00;0.62;0.00;0.00;0.62;3.40;1.90;;;21.20;24.60;;;;;;2234614;62;20945;-67
2024/01/26 06:56:45;0.00;0.00;0.62;0.00;0.00;0.62;2.60;1.70;;;21.20;24.60;;;;;;2232608;62;20383;-68
2024/01/26 06:59:29;0.00;0.00;0.62;0.00;0.00;0.62;3.43;2.30;;;21.20;24.60;;;;;;2229151;62;20403;-67
2024/01/26 07:02:14;0.00;0.00;0.62;0.00;0.00;0.62;3.10;2.07;;;21.20;24.60;;;;;;2232198;62;20402;-70
2024/01/26 07:05:00;0.00;0.00;0.62;0.00;0.00;0.62;2.97;2.00;;;21.20;24.60;;;;;;2232413;62;20370;-66
2024/01/26 07:07:45;0.00;0.00;0.62;0.00;0.00;0.62;2.83;1.80;;;21.20;24.60;;;;;;2232352;62;20447;-67
2024/01/26 07:10:29;0.00;0.00;0.62;0.00;0.00;0.62;3.10;2.43;;;21.20;24.50;;;;;;2232199;62;20949;-67
2024/01/26 07:13:13;0.00;0.00;0.62;0.00;0.00;0.62;3.93;2.47;;;21.20;24.50;;;;;;2232334;62;20455;-67
2024/01/26 07:15:58;0.00;0.00;0.62;0.00;0.00;0.62;5.33;3.47;;;21.20;24.60;;;;;;2232134;62;20958;-66
2024/01/26 07:18:42;0.00;0.00;0.62;0.00;0.00;0.62;5.00;3.83;;;21.20;24.60;;;;;;2232300;62;20937;-67
2024/01/26 07:21:28;0.00;0.00;0.62;0.00;0.00;0.62;6.00;3.87;;;21.20;24.60;;;;;;2231950;62;20390;-72
2024/01/26 07:24:14;0.00;0.00;0.62;0.00;0.00;0.62;6.00;4.57;;;21.20;24.60;;;;;;2232265;62;20451;-67
2024/01/26 07:26:58;0.00;0.00;0.62;0.00;0.00;0.62;5.10;3.87;;;21.20;24.60;;;;;;2232192;62;20379;-66
2024/01/26 07:29:44;0.00;0.00;0.62;0.00;0.00;0.62;8.77;4.73;;;21.20;24.60;;;;;;2232461;62;20387;-67
2024/01/26 07:32:29;0.00;0.00;0.62;0.00;0.00;0.62;6.60;4.87;;;21.20;24.60;;;;;;2239969;41;20425;-67
2024/01/26 07:35:13;0.00;0.00;0.62;0.00;0.00;0.62;9.53;4.83;;;21.20;24.60;;;;;;2224470;62;20406;-68
2024/01/26 07:37:59;0.00;0.00;0.62;0.00;0.00;0.62;10.50;5.60;;;21.20;24.60;;;;;;2221730;62;20437;-67
2024/01/26 07:40:44;0.00;0.00;0.62;0.00;0.00;0.62;6.83;4.63;;;21.20;24.60;;;;;;2225142;62;20445;-70
2024/01/26 07:43:28;0.00;0.00;0.62;0.00;0.00;0.62;10.57;5.10;;;21.20;24.60;;;;;;2225069;62;20724;-69
2024/01/26 07:46:13;0.00;0.00;0.62;0.00;0.00;0.62;10.47;6.00;;;21.30;24.70;;;;;;2225101;62;20923;-67
2024/01/26 07:48:57;0.00;0.00;0.62;0.00;0.00;0.62;8.73;5.70;;;21.30;24.70;;;;;;2224979;62;20782;-67
2024/01/26 07:51:42;0.00;0.00;0.62;0.00;0.00;0.62;11.07;6.50;;;21.30;24.70;;;;;;2226201;62;20418;-67
2024/01/26 07:54:28;0.00;0.00;0.62;0.00;0.00;0.62;14.47;7.57;;;21.20;25.20;;;;;;2225764;62;20825;-68
2024/01/26 07:57:12;0.00;0.00;0.62;0.00;0.00;0.62;8.60;7.37;;;21.20;24.70;;;;;;2224844;62;20390;-69
2024/01/26 07:59:57;0.00;0.00;0.62;0.00;0.00;0.62;10.70;6.30;;;21.30;24.70;;;;;;2225146;62;20373;-66
2024/01/26 08:02:42;0.00;0.00;0.62;0.00;0.00;0.62;11.10;7.10;;;21.20;24.70;;;;;;2225195;62;20416;-67
2024/01/26 08:05:26;0.00;0.00;0.62;0.00;0.00;0.62;9.47;6.70;;;21.30;24.80;;;;;;2225130;62;20762;-68
2024/01/26 08:08:11;0.00;0.00;0.62;0.00;0.00;0.62;13.97;7.10;;;21.30;24.80;;;;;;2225047;62;20417;-67
2024/01/26 08:10:57;0.00;0.00;0.62;0.00;0.00;0.62;14.60;7.33;;;21.30;24.70;;;;;;2224770;62;20445;-66
2024/01/26 08:13:42;0.00;0.00;0.62;0.00;0.00;0.62;14.03;7.50;;;21.30;24.80;;;;;;2225159;62;20357;-67
2024/01/26 08:16:27;0.00;0.00;0.62;0.00;0.00;0.62;9.77;6.63;;;21.30;24.80;;;;;;2225021;62;20377;-68
2024/01/26 08:19:12;0.00;0.00;0.62;0.00;0.00;0.62;14.07;7.53;;;21.30;24.80;;;;;;2224839;62;20453;-67
2024/01/26 08:21:56;0.00;0.00;0.62;0.00;0.00;0.62;15.20;7.70;;;21.30;24.80;;;;;;2224788;62;20384;-67
2024/01/26 08:24:41;0.00;0.00;0.62;0.00;0.00;0.62;13.37;8.40;;;21.30;24.80;;;;;;2224847;62;20405;-67
2024/01/26 08:27:27;0.00;0.00;0.62;0.00;0.00;0.62;14.20;7.47;;;21.30;24.80;;;;;;2224678;62;20373;-66
2024/01/26 08:30:12;0.00;0.00;0.62;0.00;0.00;0.62;11.87;7.27;;;21.30;24.80;;;;;;2224935;62;20471;-67
2024/01/26 08:32:56;0.00;0.00;0.62;0.00;0.00;0.62;15.53;8.20;;;21.30;24.80;;;;;;2224907;62;20421;-69
2024/01/26 08:35:41;0.00;0.00;0.62;0.00;0.00;0.62;14.63;6.57;;;21.30;24.80;;;;;;2225068;62;20491;-68
2024/01/26 08:38:26;0.00;0.00;0.62;0.00;0.00;0.62;10.37;7.00;;;21.30;24.80;;;;;;2224874;62;20900;-67
2024/01/26 08:41:11;0.00;0.00;0.62;0.00;0.00;0.62;13.30;6.20;;;21.30;24.80;;;;;;2224921;62;20400;-66
2024/01/26 08:43:57;0.00;0.00;0.62;0.00;0.00;0.62;10.70;7.30;;;21.30;24.80;;;;;;2224859;62;20426;-67
2024/01/26 08:46:41;0.00;0.00;0.62;0.00;0.00;0.62;10.53;6.57;;;21.30;24.80;;;;;;2225059;62;20449;-67
2024/01/26 08:49:26;0.00;0.00;0.62;0.00;0.00;0.62;15.03;7.23;;;21.30;24.80;;;;;;2224902;62;20402;-68
2024/01/26 08:52:10;0.00;0.00;0.62;0.00;0.00;0.62;12.47;6.90;;;21.30;24.80;;;;;;2224974;62;20396;-68
2024/01/26 08:54:55;0.00;0.00;0.62;0.00;0.00;0.62;7.90;6.40;;;21.30;24.80;;;;;;2224992;62;20398;-67
2024/01/26 08:57:40;0.00;0.00;0.62;0.00;0.00;0.62;10.07;6.23;;;21.30;24.80;;;;;;2224935;62;20426;-67
2024/01/26 09:00:26;0.00;0.00;0.62;0.00;0.00;0.62;12.87;6.50;;;21.30;24.90;;;;;;2224567;62;20373;-67
2024/01/26 09:03:11;0.00;0.00;0.62;0.00;0.00;0.62;9.37;6.40;;;21.30;24.80;;;;;;2224875;62;20381;-68
2024/01/26 09:05:55;0.00;0.00;0.62;0.00;0.00;0.62;16.23;7.43;;;21.30;24.80;;;;;;2224846;62;20405;-67
2024/01/26 09:08:40;0.00;0.00;0.62;0.00;0.00;0.62;10.43;6.33;;;21.30;24.90;;;;;;2224939;62;20381;-66
2024/01/26 09:11:24;0.00;0.00;0.62;0.00;0.00;0.62;11.27;6.83;;;21.30;25.40;;;;;;2224550;62;20442;-66
2024/01/26 09:14:09;0.00;0.00;0.62;0.00;0.00;0.62;10.50;6.03;;;21.30;24.90;;;;;;2224811;62;20414;-66
2024/01/26 09:16:55;0.00;0.00;0.62;0.00;0.00;0.62;9.77;6.07;;;21.30;24.90;;;;;;2224676;62;20373;-69
2024/01/26 09:19:39;0.00;0.00;0.62;0.00;0.00;0.62;14.33;5.93;;;21.30;24.90;;;;;;2224633;62;20389;-67
2024/01/26 09:22:24;0.00;0.00;0.62;0.00;0.00;0.62;9.80;6.67;;;21.30;24.90;;;;;;2224542;62;20388;-67
2024/01/26 09:25:09;0.00;0.00;0.62;0.00;0.00;0.62;18.03;6.73;;;21.30;24.90;;;;;;2224649;62;20357;-67
2024/01/26 09:27:54;0.00;0.00;0.62;0.00;0.00;0.62;8.93;5.90;;;21.30;24.90;;;;;;2224661;62;20376;-67
2024/01/26 09:30:38;0.00;0.00;0.62;0.00;0.00;0.62;10.93;6.00;;;21.30;24.90;;;;;;2224509;62;20385;-67
2024/01/26 09:33:25;0.00;0.00;0.62;0.00;0.00;0.62;8.47;6.40;;;21.30;24.90;;;;;;2224959;62;20368;-67
2024/01/26 09:36:10;0.00;0.00;0.62;0.00;0.00;0.62;13.40;5.60;;;21.30;24.90;;;;;;2222689;62;20904;-68
2024/01/26 09:38:55;0.00;0.00;0.62;0.00;0.00;0.62;7.93;5.20;;;21.30;24.90;;;;;;2228398;62;20426;-67
2024/01/26 09:41:39;0.00;0.00;0.62;0.00;0.00;0.62;10.50;5.57;;;21.30;24.90;;;;;;2224966;62;20454;-67
2024/01/26 09:44:24;0.00;0.00;0.62;0.00;0.00;0.62;7.17;5.17;;;21.30;24.90;;;;;;2223343;62;20396;-68
2024/01/26 09:47:09;0.00;0.00;0.62;0.00;0.00;0.62;10.33;4.97;;;21.30;24.90;;;;;;2221858;62;20431;-66
2024/01/26 09:49:59;0.00;0.00;0.62;0.00;0.00;0.62;8.10;5.13;;;21.30;24.90;;;;;;2225074;62;20388;-67
2024/01/26 09:52:44;0.00;0.00;0.62;0.00;0.00;0.62;6.73;4.70;;;21.30;25.50;;;;;;2224772;62;20869;-67
2024/01/26 09:55:31;0.00;0.00;0.62;0.00;0.00;0.62;6.90;4.40;;;21.30;25.00;;;;;;2221499;62;20946;-67
2024/01/26 09:58:15;0.00;0.00;0.62;0.00;0.00;0.62;7.57;5.17;;;21.30;24.90;;;;;;2225067;62;20381;-67
2024/01/26 10:01:00;0.00;0.00;0.62;0.00;0.00;0.62;7.73;4.40;;;21.30;25.00;;;;;;2224611;62;20424;-70
2024/01/26 10:03:45;0.00;0.00;0.62;0.00;0.00;0.62;7.60;4.73;;;21.30;25.00;;;;;;2224763;62;20477;-67
2024/01/26 10:06:32;0.00;0.00;0.62;0.00;0.00;0.62;8.13;5.47;;;21.30;25.00;;;;;;2225776;62;20377;-67
2024/01/26 10:09:17;0.00;0.00;0.62;0.00;0.00;0.62;5.80;4.63;;;21.30;25.00;;;;;;2225275;62;20381;-67
2024/01/26 10:12:02;0.00;0.00;0.62;0.00;0.00;0.62;7.17;5.17;;;21.30;25.00;;;;;;2223173;62;20926;-66
2024/01/26 10:14:49;0.00;0.00;0.62;0.00;0.00;0.62;8.50;4.20;;;21.30;25.00;;;;;;2227011;62;20373;-68
2024/01/26 10:17:33;0.00;0.00;0.62;0.00;0.00;0.62;8.00;4.70;;;21.30;25.00;;;;;;2227254;62;20377;-67
2024/01/26 10:20:18;0.00;0.00;0.62;0.00;0.00;0.62;8.17;5.03;;;21.30;25.00;;;;;;2227949;62;20372;-64
2024/01/26 10:23:05;0.00;0.00;0.62;0.00;0.00;0.62;7.13;4.13;;;21.30;25.00;;;;;;2225970;62;20397;-63
2024/01/26 10:25:50;0.00;0.00;0.62;0.00;0.00;0.62;5.17;3.80;;;21.30;25.00;;;;;;2225032;62;20406;-65
2024/01/26 10:28:35;0.00;0.00;0.62;0.00;0.00;0.62;7.93;4.33;;;21.30;25.00;;;;;;2227613;62;20389;-66
2024/01/26 10:31:19;0.00;0.00;0.62;0.00;0.00;0.62;6.70;4.10;;;21.30;25.00;;;;;;2227926;62;20732;-64
2024/01/26 10:34:05;0.00;0.00;0.62;0.00;0.00;0.62;5.73;3.97;;;21.30;25.10;;;;;;2227200;62;20437;-66
2024/01/26 10:36:50;0.00;0.00;0.62;0.00;0.00;0.62;5.10;3.20;;;21.30;25.00;;;;;;2228020;62;20422;-65
2024/01/26 10:39:39;0.00;0.00;0.62;0.00;0.00;0.62;8.13;3.90;;;21.30;25.10;;;;;;2227418;62;20372;-67
2024/01/26 10:42:26;0.00;0.00;0.62;0.00;0.00;0.62;4.60;3.43;;;21.30;25.10;;;;;;2225112;62;21011;-65
2024/01/26 10:45:11;0.00;0.00;0.62;0.00;0.00;0.62;4.80;3.20;;;21.30;25.10;;;;;;2226797;62;20368;-67
2024/01/26 10:47:58;0.00;0.00;0.62;0.00;0.00;0.62;7.30;3.53;;;21.30;25.10;;;;;;2224891;62;20377;-66
2024/01/26 10:50:43;0.00;0.00;0.62;0.00;0.00;0.62;6.43;3.80;;;21.40;25.20;;;;;;2224920;62;20404;-66